Time;durP1;ratioP1;P1;durP2;ratioP2;P2;SDS_P1;SDS_P2;PMS_P1;PMS_P2;Temp;Humidity;BMP_temperature;BMP_pressure;BME280_temperature;BME280_humidity;BME280_pressure;Samples;Min_cycle;Max_cycle;Signal;HPM_P1;HPM_P2
2023/12/07 00:00:36;;;;;;;9.35;6.75;;;5.40;99.90;;;;;;4998387;28;20026;-95
2023/12/07 00:03:02;;;;;;;8.57;6.30;;;5.80;99.90;;;;;;5007129;28;20045;-91
2023/12/07 00:05:28;;;;;;;7.80;6.30;;;5.00;99.90;;;;;;5004932;28;20554;-94
2023/12/07 00:07:58;;;;;;;9.30;6.10;;;5.00;99.90;;;;;;4999339;28;20032;-94
2023/12/07 00:10:27;;;;;;;;;;;6.00;99.90;;;;;;4997014;28;20034;-92
2023/12/07 00:12:52;;;;;;;11.15;6.05;;;4.90;99.90;;;;;;4998243;28;19945;-93
2023/12/07 00:15:18;;;;;;;9.27;6.30;;;4.90;99.90;;;;;;5009769;28;20050;-91
2023/12/07 00:17:43;;;;;;;8.73;6.07;;;4.90;99.90;;;;;;5016460;28;20022;-91
2023/12/07 00:20:24;;;;;;;9.60;6.70;;;4.90;99.90;;;;;;4997962;28;20030;-92
2023/12/07 00:22:53;;;;;;;;;;;5.30;99.90;;;;;;5005035;28;20396;-92
2023/12/07 00:25:18;;;;;;;9.38;6.40;;;4.90;99.90;;;;;;5015704;28;19926;-92
2023/12/07 00:27:44;;;;;;;10.63;7.05;;;4.90;99.90;;;;;;5012775;28;20113;-91
2023/12/07 00:30:10;;;;;;;7.15;6.30;;;4.90;99.90;;;;;;4997816;28;20035;-93
2023/12/07 00:32:35;;;;;;;8.55;6.55;;;4.90;99.90;;;;;;4997693;28;20050;-92
2023/12/07 00:35:01;;;;;;;10.88;6.50;;;4.80;99.90;;;;;;5007449;28;20469;-91
2023/12/07 00:37:27;;;;;;;7.15;6.22;;;4.80;99.90;;;;;;4999864;28;20513;-91
2023/12/07 00:39:52;;;;;;;8.80;6.10;;;4.80;99.90;;;;;;4996203;28;20022;-94
2023/12/07 00:42:18;;;;;;;11.65;6.97;;;4.80;99.90;;;;;;5006917;28;20015;-91
2023/12/07 00:44:44;;;;;;;8.07;5.93;;;5.30;99.90;;;;;;5011047;28;20110;-92
2023/12/07 00:47:09;;;;;;;9.82;6.47;;;4.70;99.90;;;;;;4992699;28;20659;-91
2023/12/07 00:49:39;;;;;;;10.80;6.85;;;4.70;99.90;;;;;;4992479;28;20041;-94
2023/12/07 00:52:05;;;;;;;8.52;6.25;;;4.70;99.90;;;;;;4997092;28;20022;-93
2023/12/07 00:54:31;;;;;;;11.43;6.80;;;4.70;99.90;;;;;;4997183;28;20061;-93
2023/12/07 00:56:57;;;;;;;9.57;6.53;;;4.70;99.90;;;;;;4994155;28;20030;-95
2023/12/07 00:59:23;;;;;;;8.05;6.47;;;4.60;99.90;;;;;;4993653;28;20036;-94
2023/12/07 01:01:50;;;;;;;11.52;6.63;;;4.70;99.90;;;;;;4996735;28;20093;-93
2023/12/07 01:04:17;;;;;;;6.90;6.18;;;4.70;99.90;;;;;;4996313;28;20104;-94
2023/12/07 01:06:43;;;;;;;8.48;6.68;;;4.70;99.90;;;;;;4997167;28;20487;-91
2023/12/07 01:09:13;;;;;;;10.57;6.57;;;4.70;99.90;;;;;;4993637;28;20026;-94
2023/12/07 01:11:42;;;;;;;10.77;6.82;;;4.60;99.90;;;;;;4997389;28;20035;-94
2023/12/07 01:14:08;;;;;;;13.02;6.45;;;4.60;99.90;;;;;;4997323;28;20085;-94
2023/12/07 01:16:33;;;;;;;11.18;6.82;;;4.60;99.90;;;;;;4996419;28;20022;-92
2023/12/07 01:18:59;;;;;;;10.65;6.78;;;4.60;99.90;;;;;;4995487;28;20033;-94
2023/12/07 01:21:25;;;;;;;10.38;7.45;;;4.60;99.90;;;;;;4996026;28;20045;-93
2023/12/07 01:23:51;;;;;;;10.48;6.25;;;4.60;99.90;;;;;;4995807;28;20038;-92
2023/12/07 01:26:16;;;;;;;13.27;6.93;;;4.60;99.90;;;;;;4996490;28;20090;-93
2023/12/07 01:28:42;;;;;;;10.70;6.80;;;4.60;99.90;;;;;;4995705;28;20506;-93
2023/12/07 01:31:10;;;;;;;19.38;6.63;;;4.60;99.90;;;;;;4993250;28;20458;-95
2023/12/07 01:33:35;;;;;;;13.52;7.97;;;4.60;99.90;;;;;;4996088;28;20386;-93
2023/12/07 01:36:01;;;;;;;10.80;7.30;;;4.60;99.90;;;;;;4997047;28;20025;-93
2023/12/07 01:38:26;;;;;;;9.38;5.95;;;4.50;99.90;;;;;;5014678;28;20253;-93
2023/12/07 01:40:53;;;;;;;8.10;7.25;;;4.50;99.90;;;;;;5000336;28;20034;-93
2023/12/07 01:43:20;;;;;;;9.73;7.25;;;4.60;99.90;;;;;;4995988;28;20110;-93
2023/12/07 01:45:46;;;;;;;7.53;6.55;;;4.50;99.90;;;;;;4996477;28;20033;-94
2023/12/07 01:48:13;;;;;;;12.10;7.03;;;4.50;99.90;;;;;;4996093;28;20113;-93
2023/12/07 01:50:39;;;;;;;10.80;7.00;;;4.60;99.90;;;;;;4996539;28;20065;-94
2023/12/07 01:53:06;;;;;;;7.75;6.40;;;4.50;99.90;;;;;;4994805;28;20386;-94
2023/12/07 01:55:38;;;;;;;8.60;6.53;;;4.50;99.90;;;;;;4985495;28;20093;-95
2023/12/07 01:58:06;;;;;;;15.63;6.55;;;4.50;99.90;;;;;;5002613;28;20470;-94
2023/12/07 02:00:34;;;;;;;8.57;6.40;;;4.50;99.90;;;;;;5001121;28;20505;-93
2023/12/07 02:03:04;;;;;;;7.65;5.80;;;4.50;99.90;;;;;;4999930;28;20023;-93
2023/12/07 02:05:30;;;;;;;7.43;6.40;;;4.50;99.90;;;;;;4984542;28;20034;-94
2023/12/07 02:07:56;;;;;;;6.85;5.25;;;4.40;99.90;;;;;;4997910;28;20039;-93
2023/12/07 02:10:26;;;;;;;9.30;6.50;;;4.40;99.90;;;;;;4998398;28;20088;-92
2023/12/07 02:12:53;;;;;;;7.13;6.13;;;4.30;99.90;;;;;;5013204;28;20073;-94
2023/12/07 02:15:20;;;;;;;6.60;5.90;;;4.40;99.90;;;;;;5002315;28;20104;-93
2023/12/07 02:17:49;;;;;;;9.23;6.85;;;4.30;99.90;;;;;;5006004;28;20018;-94
2023/12/07 02:20:29;;;;;;;6.63;6.05;;;4.30;99.90;;;;;;5001923;28;20026;-93
2023/12/07 02:23:02;;;;;;;10.13;6.60;;;4.30;99.90;;;;;;5010288;28;20041;-96
2023/12/07 02:25:44;;;;;;;7.00;6.30;;;4.30;99.90;;;;;;5011631;28;20141;-93
2023/12/07 02:28:10;;;;;;;6.45;5.75;;;4.20;99.90;;;;;;4999152;28;20034;-93
2023/12/07 02:30:36;;;;;;;7.72;6.95;;;4.30;99.90;;;;;;4999199;28;20058;-94
2023/12/07 02:33:01;;;;;;;7.35;6.20;;;4.20;99.90;;;;;;4999863;28;20027;-94
2023/12/07 02:35:28;;;;;;;7.72;6.55;;;4.20;99.90;;;;;;4997026;28;20049;-92
2023/12/07 02:37:55;;;;;;;12.45;8.63;;;4.20;99.90;;;;;;4979869;28;20034;-92
2023/12/07 02:40:24;;;;;;;11.48;7.00;;;4.20;99.90;;;;;;4976594;28;20033;-92
2023/12/07 02:42:51;;;;;;;8.40;6.75;;;4.20;99.90;;;;;;4980385;28;20030;-92
2023/12/07 02:45:17;;;;;;;8.65;6.55;;;4.30;99.90;;;;;;4978799;28;20113;-92
2023/12/07 02:47:45;;;;;;;8.82;7.22;;;4.20;99.90;;;;;;4976890;28;20178;-93
2023/12/07 02:50:12;;;;;;;8.30;6.82;;;4.20;99.90;;;;;;4956751;29;20039;-93
2023/12/07 02:52:39;;;;;;;10.07;6.57;;;4.20;99.90;;;;;;4956503;29;20490;-93
2023/12/07 02:55:08;;;;;;;6.95;6.25;;;4.10;99.90;;;;;;4956780;29;20398;-94
2023/12/07 02:57:34;;;;;;;8.15;6.97;;;4.20;99.90;;;;;;4972517;28;20023;-94
2023/12/07 03:00:00;;;;;;;8.45;7.65;;;4.10;99.90;;;;;;4976780;28;20034;-93
2023/12/07 03:02:26;;;;;;;8.75;6.50;;;4.70;99.90;;;;;;4975642;28;20027;-93
2023/12/07 03:04:53;;;;;;;7.45;6.57;;;4.10;99.90;;;;;;4975392;28;20474;-94
2023/12/07 03:07:18;;;;;;;9.23;7.90;;;4.10;99.90;;;;;;4976415;28;20589;-93
2023/12/07 03:09:46;;;;;;;9.70;7.53;;;4.10;99.90;;;;;;4983143;28;20069;-92
2023/12/07 03:12:11;;;;;;;8.80;7.47;;;4.10;99.90;;;;;;4975380;28;20043;-94
2023/12/07 03:14:37;;;;;;;9.93;7.72;;;4.10;99.90;;;;;;4975213;28;20043;-93
2023/12/07 03:17:03;;;;;;;8.68;7.70;;;4.10;99.90;;;;;;4975382;28;20031;-93
2023/12/07 03:19:28;;;;;;;10.73;8.15;;;4.00;99.90;;;;;;4953015;28;20094;-94
2023/12/07 03:21:54;;;;;;;11.93;7.05;;;4.00;99.90;;;;;;4975739;28;20122;-93
2023/12/07 03:24:19;;;;;;;9.02;8.00;;;4.00;99.90;;;;;;4975192;28;20471;-93
2023/12/07 03:26:46;;;;;;;7.63;6.80;;;4.00;99.90;;;;;;4978760;28;20499;-93
2023/12/07 03:29:12;;;;;;;10.32;7.90;;;4.00;99.90;;;;;;4992560;28;20383;-94
2023/12/07 03:31:39;;;;;;;11.27;7.15;;;5.40;99.90;;;;;;4978924;28;20030;-94
2023/12/07 03:34:05;;;;;;;9.32;7.63;;;4.00;99.90;;;;;;4975268;28;20034;-93
2023/12/07 03:36:47;;;;;;;9.80;8.00;;;4.10;99.90;;;;;;4981220;28;20022;-93
2023/12/07 03:39:22;;;;;;;9.73;8.70;;;4.00;99.90;;;;;;4989819;28;20015;-93
2023/12/07 03:41:59;;;;;;;10.63;7.88;;;3.90;99.90;;;;;;4994073;28;20034;-93
2023/12/07 03:44:26;;;;;;;14.60;8.25;;;4.70;99.90;;;;;;4978250;28;20022;-93
2023/12/07 03:46:52;;;;;;;10.75;7.30;;;3.80;99.90;;;;;;4975753;28;20166;-92
2023/12/07 03:49:18;;;;;;;8.60;7.40;;;3.90;99.90;;;;;;4993188;28;20043;-93
2023/12/07 03:51:54;;;;;;;10.23;8.70;;;4.80;99.90;;;;;;4979744;28;20041;-93
2023/12/07 03:54:20;;;;;;;13.52;9.25;;;4.80;99.90;;;;;;4974580;28;20030;-93
2023/12/07 03:56:45;;;;;;;11.93;8.45;;;3.90;99.90;;;;;;4974931;28;20033;-93
2023/12/07 03:59:11;;;;;;;15.57;9.90;;;4.90;99.90;;;;;;4974340;28;20030;-94
2023/12/07 04:01:37;;;;;;;16.50;10.07;;;3.80;99.90;;;;;;4975151;28;20034;-93
2023/12/07 04:04:04;;;;;;;16.30;9.80;;;3.70;99.90;;;;;;4973910;28;20117;-93
2023/12/07 04:06:32;;;;;;;15.52;10.32;;;3.80;99.90;;;;;;4974380;28;20382;-93
2023/12/07 04:08:58;;;;;;;12.73;9.18;;;3.80;99.90;;;;;;4974867;28;20134;-93
2023/12/07 04:11:25;;;;;;;12.23;9.52;;;3.70;99.90;;;;;;4975639;28;20051;-93
2023/12/07 04:13:51;;;;;;;14.07;11.00;;;3.70;99.90;;;;;;4996751;28;20015;-92
2023/12/07 04:16:17;;;;;;;16.60;9.75;;;3.60;99.90;;;;;;4994919;28;20011;-93
2023/12/07 04:18:43;;;;;;;17.83;11.00;;;3.60;99.90;;;;;;4986707;28;20033;-93
2023/12/07 04:21:10;;;;;;;17.15;10.63;;;3.50;99.90;;;;;;4993848;28;20380;-93
2023/12/07 04:24:00;;;;;;;17.60;11.30;;;4.60;99.90;;;;;;4998187;28;20011;-92
2023/12/07 04:26:35;;;;;;;25.10;13.27;;;3.60;99.90;;;;;;5007685;28;20110;-93
2023/12/07 04:29:01;;;;;;;22.13;13.98;;;4.50;99.90;;;;;;4998993;28;20034;-94
2023/12/07 04:31:28;;;;;;;24.88;14.27;;;4.60;99.90;;;;;;4997439;28;20084;-94
2023/12/07 04:33:53;;;;;;;23.85;14.07;;;4.10;99.90;;;;;;4985207;28;20026;-92
2023/12/07 04:36:35;;;;;;;25.90;14.13;;;3.80;99.90;;;;;;5004093;28;20030;-93
2023/12/07 04:39:01;;;;;;;31.33;15.07;;;4.20;99.90;;;;;;4991754;28;20042;-92
2023/12/07 04:41:27;;;;;;;27.92;15.43;;;3.40;99.90;;;;;;4993819;28;20073;-92
2023/12/07 04:43:53;;;;;;;30.30;16.17;;;4.00;99.90;;;;;;4994031;28;20038;-93
2023/12/07 04:46:19;;;;;;;25.00;15.57;;;4.50;99.90;;;;;;4997668;28;20053;-94
2023/12/07 04:48:57;;;;;;;30.52;16.85;;;3.30;99.90;;;;;;4996101;28;20070;-93
2023/12/07 04:51:24;;;;;;;23.65;16.02;;;3.60;99.90;;;;;;4998389;28;20080;-92
2023/12/07 04:53:51;;;;;;;24.27;15.43;;;4.30;99.90;;;;;;4996509;28;20034;-91
2023/12/07 04:56:18;;;;;;;23.80;15.50;;;3.30;99.90;;;;;;4996658;28;20470;-89
2023/12/07 04:58:52;;;;;;;25.92;16.13;;;4.40;99.90;;;;;;4996807;28;20050;-93
2023/12/07 05:01:18;;;;;;;25.50;16.65;;;4.10;99.90;;;;;;4996271;28;20370;-93
2023/12/07 05:03:45;;;;;;;32.42;17.25;;;3.20;99.90;;;;;;4996337;28;20485;-93
2023/12/07 05:06:11;;;;;;;30.70;16.60;;;3.20;99.90;;;;;;4996430;28;20042;-93
2023/12/07 05:08:57;;;;;;;28.52;16.45;;;4.40;99.90;;;;;;4995949;28;20026;-91
2023/12/07 05:11:23;;;;;;;27.67;16.52;;;3.10;99.90;;;;;;4995967;28;20031;-93
2023/12/07 05:13:48;;;;;;;30.17;16.50;;;3.10;99.90;;;;;;4996931;28;20033;-92
2023/12/07 05:16:14;;;;;;;34.47;15.88;;;3.10;99.90;;;;;;4996274;28;20114;-92
2023/12/07 05:18:56;;;;;;;26.77;15.02;;;3.10;99.90;;;;;;5009401;28;20018;-92
2023/12/07 05:21:22;;;;;;;26.40;16.85;;;3.30;99.90;;;;;;5011177;28;20074;-93
2023/12/07 05:23:59;;;;;;;32.53;17.48;;;2.80;99.90;;;;;;5018031;28;20026;-93
2023/12/07 05:26:26;;;;;;;41.63;16.17;;;4.20;99.90;;;;;;5031487;28;20065;-93
2023/12/07 05:28:52;;;;;;;29.40;16.02;;;2.80;99.90;;;;;;5022946;28;20042;-93
2023/12/07 05:31:17;;;;;;;23.25;14.93;;;2.80;99.90;;;;;;5017125;28;20036;-94
2023/12/07 05:34:00;;;;;;;25.45;15.02;;;2.80;99.90;;;;;;5009751;28;20493;-93
2023/12/07 05:36:26;;;;;;;31.90;16.67;;;2.90;99.90;;;;;;4985016;28;20039;-94
2023/12/07 05:38:53;;;;;;;28.27;15.82;;;3.80;99.90;;;;;;4987759;28;20038;-93
2023/12/07 05:41:22;;;;;;;31.42;15.50;;;2.60;99.90;;;;;;4998718;28;20015;-94
2023/12/07 05:44:03;;;;;;;32.92;17.33;;;3.60;99.90;;;;;;4998448;28;20061;-94
2023/12/07 05:46:29;;;;;;;24.92;15.82;;;2.60;99.90;;;;;;5004322;28;20025;-94
2023/12/07 05:48:55;;;;;;;31.85;15.55;;;2.40;99.90;;;;;;5014641;28;20054;-94
2023/12/07 05:51:20;;;;;;;49.85;15.82;;;3.50;99.90;;;;;;4996529;28;20034;-93
2023/12/07 05:53:46;;;;;;;33.30;14.00;;;2.50;99.90;;;;;;4996108;28;20034;-93
2023/12/07 05:56:20;;;;;;;20.55;13.60;;;3.60;99.90;;;;;;4996492;28;20385;-93
2023/12/07 05:58:47;;;;;;;21.80;13.57;;;3.70;99.90;;;;;;4998049;28;20046;-91
2023/12/07 06:01:17;;;;;;;29.40;15.20;;;2.50;99.90;;;;;;4982825;28;20046;-91
2023/12/07 06:03:53;;;;;;;26.58;13.30;;;2.50;99.90;;;;;;4990490;28;20031;-91
2023/12/07 06:06:21;;;;;;;19.77;12.88;;;2.40;99.90;;;;;;4984569;28;20031;-92
2023/12/07 06:08:47;;;;;;;20.75;12.70;;;2.60;99.90;;;;;;4991053;28;20031;-91
2023/12/07 06:11:15;;;;;;;19.05;12.70;;;3.60;99.90;;;;;;4997559;28;20023;-92
2023/12/07 06:13:51;;;;;;;25.70;13.73;;;1.40;99.90;;;;;;4988702;28;20054;-93
2023/12/07 06:16:18;;;;;;;19.05;12.45;;;3.30;99.90;;;;;;4989522;28;20472;-92
2023/12/07 06:18:44;;;;;;;18.17;12.05;;;2.50;99.90;;;;;;4985981;28;20030;-92
2023/12/07 06:21:10;;;;;;;20.98;13.73;;;2.50;99.90;;;;;;4982323;28;20030;-92
2023/12/07 06:23:35;;;;;;;20.80;13.07;;;2.50;99.90;;;;;;4987497;28;20037;-90
2023/12/07 06:26:08;;;;;;;20.40;12.95;;;2.50;99.90;;;;;;4995197;28;20038;-93
2023/12/07 06:28:36;;;;;;;18.98;12.32;;;3.10;99.90;;;;;;4996491;28;20026;-92
2023/12/07 06:31:06;;;;;;;20.38;12.48;;;2.50;99.90;;;;;;4996738;28;20511;-93
2023/12/07 06:33:31;;;;;;;22.33;11.85;;;2.60;99.90;;;;;;4994568;28;20050;-92
2023/12/07 06:35:58;;;;;;;18.17;11.18;;;2.60;99.90;;;;;;4995413;28;20037;-91
2023/12/07 06:38:24;;;;;;;18.20;11.23;;;3.50;99.90;;;;;;4996371;28;20031;-91
2023/12/07 06:40:50;;;;;;;20.00;11.52;;;3.60;99.90;;;;;;4995370;28;20041;-90
2023/12/07 06:43:16;;;;;;;19.25;10.63;;;2.50;99.90;;;;;;4995845;28;20034;-88
2023/12/07 06:45:42;;;;;;;16.85;11.13;;;2.50;99.90;;;;;;4995489;28;20030;-91
2023/12/07 06:48:08;;;;;;;19.13;11.13;;;2.60;99.90;;;;;;4995992;28;20030;-91
2023/12/07 06:50:34;;;;;;;18.63;11.75;;;2.60;99.90;;;;;;4998486;28;20038;-91
2023/12/07 06:52:59;;;;;;;21.88;11.00;;;2.50;99.90;;;;;;4995177;28;20026;-92
2023/12/07 06:55:25;;;;;;;19.48;11.40;;;2.60;99.90;;;;;;4994668;28;20050;-92
2023/12/07 06:57:53;;;;;;;17.45;11.13;;;2.60;99.90;;;;;;5013713;28;20018;-94
2023/12/07 07:00:20;;;;;;;17.35;10.70;;;2.50;99.90;;;;;;5002133;28;20363;-91
2023/12/07 07:02:45;;;;;;;17.65;11.35;;;2.60;99.90;;;;;;5004071;28;20031;-91
2023/12/07 07:05:12;;;;;;;25.75;12.40;;;2.60;99.90;;;;;;4997449;28;20463;-91
2023/12/07 07:07:38;;;;;;;16.40;10.60;;;2.60;99.90;;;;;;5005207;28;20034;-91
2023/12/07 07:10:04;;;;;;;23.38;10.63;;;2.60;99.90;;;;;;5011386;28;20042;-91
2023/12/07 07:12:30;;;;;;;15.88;9.88;;;2.60;99.90;;;;;;5005826;28;20034;-90
2023/12/07 07:14:55;;;;;;;16.38;10.18;;;2.60;99.90;;;;;;4994958;28;20080;-92
2023/12/07 07:17:21;;;;;;;17.05;10.35;;;2.60;99.90;;;;;;4996371;28;20030;-92
2023/12/07 07:19:47;;;;;;;17.92;11.40;;;2.50;99.90;;;;;;4997809;28;20041;-92
2023/12/07 07:22:14;;;;;;;14.55;10.07;;;2.60;99.90;;;;;;4997475;28;20033;-92
2023/12/07 07:24:40;;;;;;;19.83;9.85;;;2.60;99.90;;;;;;4995552;28;20026;-92
2023/12/07 07:27:06;;;;;;;14.82;9.68;;;2.50;99.90;;;;;;4995597;28;20108;-93
2023/12/07 07:29:32;;;;;;;15.55;9.23;;;2.50;99.90;;;;;;4994935;28;20038;-93
2023/12/07 07:31:57;;;;;;;15.38;9.50;;;2.50;99.90;;;;;;4994745;28;20568;-93
2023/12/07 07:34:25;;;;;;;18.67;10.75;;;2.40;99.90;;;;;;4995081;28;20064;-90
2023/12/07 07:36:50;;;;;;;32.47;11.85;;;2.50;99.90;;;;;;4994527;28;20041;-91
2023/12/07 07:39:16;;;;;;;21.98;11.32;;;2.50;99.90;;;;;;4994510;28;20481;-93
2023/12/07 07:41:41;;;;;;;22.48;12.23;;;2.50;99.90;;;;;;4994979;28;20019;-93
2023/12/07 07:44:07;;;;;;;18.60;11.10;;;3.10;99.90;;;;;;4994244;28;20030;-91
2023/12/07 07:46:32;;;;;;;21.95;11.02;;;2.50;99.90;;;;;;4994085;28;20025;-91
2023/12/07 07:49:10;;;;;;;19.98;11.45;;;2.50;99.90;;;;;;4994972;28;20504;-92
2023/12/07 07:51:38;;;;;;;24.85;11.88;;;2.50;99.90;;;;;;5001416;28;20062;-93
2023/12/07 07:54:04;;;;;;;23.05;11.43;;;2.40;99.90;;;;;;5000102;28;20025;-93
2023/12/07 07:56:29;;;;;;;22.23;12.27;;;2.80;99.90;;;;;;4993067;28;20026;-91
2023/12/07 07:59:01;;;;;;;25.17;12.05;;;2.40;99.90;;;;;;4999119;28;20030;-92
2023/12/07 08:01:26;;;;;;;22.73;12.00;;;2.40;99.90;;;;;;5010914;28;20026;-88
2023/12/07 08:03:52;;;;;;;23.23;12.02;;;2.40;99.90;;;;;;4989753;28;20650;-91
2023/12/07 08:06:18;;;;;;;20.08;11.60;;;2.50;99.90;;;;;;4974548;28;20061;-89
2023/12/07 08:08:44;;;;;;;27.38;11.98;;;3.10;99.90;;;;;;4975617;28;20019;-92
2023/12/07 08:11:25;;;;;;;24.00;13.38;;;2.50;99.90;;;;;;4974392;28;20049;-91
2023/12/07 08:13:50;;;;;;;26.48;12.05;;;3.10;99.90;;;;;;4981787;28;20112;-90
2023/12/07 08:16:16;;;;;;;21.00;11.80;;;2.40;99.90;;;;;;4993602;28;20711;-91
2023/12/07 08:19:02;;;;;;;34.72;12.85;;;2.30;99.90;;;;;;5005044;28;20030;-90
2023/12/07 08:21:29;;;;;;;21.55;11.15;;;2.50;99.90;;;;;;5003203;28;20029;-90
2023/12/07 08:24:07;;;;;;;20.75;11.90;;;2.50;99.90;;;;;;5010779;28;20048;-91
2023/12/07 08:26:33;;;;;;;24.70;12.02;;;3.00;99.90;;;;;;5019146;28;20038;-92
2023/12/07 08:28:59;;;;;;;26.63;12.63;;;2.60;99.90;;;;;;5017930;28;20105;-92
2023/12/07 08:31:44;;;;;;;25.08;12.57;;;3.60;99.90;;;;;;5004167;28;20057;-91
2023/12/07 08:34:11;;;;;;;21.67;11.43;;;3.40;99.90;;;;;;5001827;28;20023;-93
2023/12/07 08:36:37;;;;;;;32.35;11.80;;;3.60;99.90;;;;;;4999287;28;20035;-91
2023/12/07 08:39:17;;;;;;;26.38;13.35;;;2.60;99.90;;;;;;5015221;28;20087;-93
2023/12/07 08:41:42;;;;;;;28.70;13.50;;;3.40;99.90;;;;;;4991919;28;20105;-90
2023/12/07 08:44:08;;;;;;;26.55;12.85;;;2.50;99.90;;;;;;4997765;28;20125;-92
2023/12/07 08:46:35;;;;;;;26.05;13.70;;;2.60;99.90;;;;;;5099800;22;20053;-92
2023/12/07 08:49:03;;;;;;;26.08;12.98;;;2.50;99.90;;;;;;5002455;28;20023;-88
2023/12/07 08:51:29;;;;;;;26.27;13.80;;;2.50;99.90;;;;;;5005065;28;20084;-88
2023/12/07 08:53:55;;;;;;;26.73;13.32;;;2.60;99.90;;;;;;5003399;28;20022;-89
2023/12/07 08:56:21;;;;;;;24.35;12.77;;;2.60;99.90;;;;;;5003685;28;20037;-87
2023/12/07 08:58:47;;;;;;;28.83;13.10;;;2.60;99.90;;;;;;5004965;28;20034;-87
2023/12/07 09:01:13;;;;;;;27.60;13.88;;;2.60;99.90;;;;;;4999868;28;20046;-87
2023/12/07 09:03:39;;;;;;;30.30;13.00;;;2.60;99.90;;;;;;5001392;28;20095;-88
2023/12/07 09:06:05;;;;;;;28.30;14.82;;;2.70;99.90;;;;;;4995315;28;20022;-86
2023/12/07 09:08:32;;;;;;;29.42;14.35;;;2.60;99.90;;;;;;4993350;28;20241;-90
2023/12/07 09:10:58;;;;;;;33.25;14.95;;;2.70;99.90;;;;;;4996613;28;20041;-89
2023/12/07 09:13:23;;;;;;;33.85;15.20;;;2.70;99.90;;;;;;4996201;28;20030;-90
2023/12/07 09:15:49;;;;;;;30.50;15.63;;;2.70;99.90;;;;;;4981563;28;20483;-92
2023/12/07 09:18:14;;;;;;;29.48;15.43;;;2.70;99.90;;;;;;4989852;28;20045;-89
2023/12/07 09:20:45;;;;;;;30.25;14.32;;;2.70;99.90;;;;;;4991793;28;20116;-89
2023/12/07 09:23:12;;;;;;;26.75;14.20;;;2.70;99.90;;;;;;4994442;28;20480;-87
2023/12/07 09:25:38;;;;;;;38.80;15.07;;;2.70;99.90;;;;;;4995338;28;20081;-90
2023/12/07 09:28:05;;;;;;;31.10;14.85;;;2.70;99.90;;;;;;4996466;28;20030;-92
2023/12/07 09:30:30;;;;;;;33.63;15.32;;;2.70;99.90;;;;;;4995818;28;20034;-89
2023/12/07 09:32:56;;;;;;;33.60;15.85;;;2.80;99.90;;;;;;4995416;28;20030;-90
2023/12/07 09:35:21;;;;;;;27.92;14.73;;;2.80;99.90;;;;;;4989692;28;20079;-91
2023/12/07 09:37:49;;;;;;;36.97;16.58;;;2.70;99.90;;;;;;4986225;28;20034;-90
2023/12/07 09:40:19;;;;;;;34.15;17.50;;;2.80;99.90;;;;;;4983675;28;20026;-91
2023/12/07 09:42:46;;;;;;;30.92;16.15;;;2.70;99.90;;;;;;4986208;28;20050;-92
2023/12/07 09:45:13;;;;;;;41.67;16.75;;;2.70;99.90;;;;;;4996598;28;20058;-91
2023/12/07 09:47:41;;;;;;;38.67;17.00;;;2.80;99.90;;;;;;5010461;28;20030;-88
2023/12/07 09:50:08;;;;;;;38.40;18.80;;;2.80;99.90;;;;;;5009376;28;20042;-92
2023/12/07 09:52:35;;;;;;;38.28;18.98;;;2.80;99.90;;;;;;5001351;28;20072;-93
2023/12/07 09:55:10;;;;;;;34.88;17.58;;;2.90;99.90;;;;;;4998688;28;20023;-92
2023/12/07 09:57:37;;;;;;;38.80;18.73;;;2.90;99.90;;;;;;4997194;28;20045;-91
2023/12/07 10:00:04;;;;;;;37.47;18.23;;;4.00;99.90;;;;;;4984686;28;20023;-89
2023/12/07 10:02:30;;;;;;;39.65;17.52;;;3.00;99.90;;;;;;4977721;28;20039;-89
2023/12/07 10:05:07;;;;;;;34.80;17.83;;;3.00;99.90;;;;;;4977081;28;20033;-90
2023/12/07 10:07:36;;;;;;;35.67;17.20;;;2.90;99.90;;;;;;4975524;28;20038;-88
2023/12/07 10:10:03;;;;;;;38.55;18.17;;;2.90;99.90;;;;;;4986784;28;20038;-89
2023/12/07 10:12:29;;;;;;;40.70;18.73;;;2.90;99.90;;;;;;4997000;28;20119;-89
2023/12/07 10:14:57;;;;;;;42.25;18.75;;;2.90;99.90;;;;;;4995816;28;20066;-89
2023/12/07 10:17:22;;;;;;;39.65;18.90;;;3.00;99.90;;;;;;4995070;28;20105;-90
2023/12/07 10:20:08;;;;;;;39.20;19.80;;;3.00;99.90;;;;;;4993630;28;20116;-90
2023/12/07 10:22:35;;;;;;;39.17;18.27;;;3.10;99.90;;;;;;4998387;28;20496;-89
2023/12/07 10:25:00;;;;;;;34.17;17.75;;;3.10;99.90;;;;;;4993269;28;20117;-89
2023/12/07 10:27:28;;;;;;;39.97;18.42;;;3.00;99.90;;;;;;4994847;28;20469;-93
2023/12/07 10:29:53;;;;;;;39.88;18.98;;;3.00;99.90;;;;;;4995453;28;20065;-91
2023/12/07 10:32:22;;;;;;;37.03;17.90;;;3.00;99.90;;;;;;4999149;28;20027;-86
2023/12/07 10:34:47;;;;;;;35.50;17.08;;;3.00;99.90;;;;;;5003259;28;20030;-89
2023/12/07 10:37:13;;;;;;;35.70;17.83;;;3.00;99.90;;;;;;5002946;28;20228;-88
2023/12/07 10:39:38;;;;;;;40.25;17.13;;;4.20;99.90;;;;;;4985837;28;20080;-88
2023/12/07 10:42:13;;;;;;;34.03;17.42;;;3.00;99.90;;;;;;4996789;28;20113;-89
2023/12/07 10:44:42;;;;;;;31.08;16.63;;;3.00;99.90;;;;;;4980070;28;20030;-88
2023/12/07 10:47:10;;;;;;;31.27;15.57;;;3.10;99.90;;;;;;4983325;28;20053;-87
2023/12/07 10:49:42;;;;;;;31.60;17.10;;;3.70;99.90;;;;;;4977549;28;20510;-88
2023/12/07 10:52:13;;;;;;;33.03;17.02;;;3.10;99.90;;;;;;4977779;28;20034;-89
2023/12/07 10:55:16;;;;;;;34.10;16.17;;;3.10;99.90;;;;;;4983663;28;20117;-92
2023/12/07 10:57:44;;;;;;;38.42;17.73;;;1.90;99.90;;;;;;4974020;28;20030;-92
2023/12/07 11:00:11;;;;;;;30.40;16.30;;;3.20;99.90;;;;;;4985772;28;20117;-91
2023/12/07 11:02:40;;;;;;;30.88;15.80;;;3.20;99.90;;;;;;4991375;28;20022;-92
2023/12/07 11:05:06;;;;;;;30.90;15.95;;;3.20;99.90;;;;;;4980106;28;20038;-91
2023/12/07 11:07:45;;;;;;;33.45;16.55;;;3.20;99.90;;;;;;4989521;28;20022;-93
2023/12/07 11:10:20;;;;;;;28.73;15.98;;;3.20;99.90;;;;;;4986321;28;20030;-91
2023/12/07 11:13:11;;;;;;;28.60;16.25;;;3.20;99.90;;;;;;4986597;28;20078;-94
2023/12/07 11:15:36;;;;;;;51.60;19.43;;;3.20;99.90;;;;;;4987309;28;20121;-90
2023/12/07 11:18:02;;;;;;;31.13;16.85;;;3.20;99.90;;;;;;4992075;28;20265;-89
2023/12/07 11:20:43;;;;;;;39.20;19.10;;;3.20;99.90;;;;;;4993003;28;20485;-90
2023/12/07 11:23:09;;;;;;;30.50;16.25;;;3.20;99.90;;;;;;4991270;28;20030;-92
2023/12/07 11:25:42;;;;;;;33.55;18.55;;;3.20;99.90;;;;;;4988552;28;20374;-90
2023/12/07 11:28:10;;;;;;;32.33;16.98;;;3.20;99.90;;;;;;4991791;28;20034;-91
2023/12/07 11:30:36;;;;;;;46.80;18.45;;;3.20;99.90;;;;;;4991213;28;20117;-90
2023/12/07 11:33:06;;;;;;;31.13;18.20;;;3.20;99.90;;;;;;4991449;28;20026;-90
2023/12/07 11:35:32;;;;;;;28.52;17.70;;;3.30;99.90;;;;;;4996451;28;20517;-86
2023/12/07 11:38:08;;;;;;;31.85;17.38;;;3.30;99.90;;;;;;4990735;28;20037;-85
2023/12/07 11:40:43;;;;;;;31.52;16.42;;;3.30;99.90;;;;;;4990121;28;20105;-91
2023/12/07 11:43:17;;;;;;;27.65;16.20;;;3.40;99.90;;;;;;4993435;28;20124;-88
2023/12/07 11:45:49;;;;;;;29.92;16.58;;;3.40;99.90;;;;;;4990953;28;20054;-88
2023/12/07 11:48:20;;;;;;;33.45;15.82;;;3.40;99.90;;;;;;5008499;28;20119;-94
2023/12/07 11:53:35;;;;;;;28.88;16.40;;;3.30;99.90;;;;;;5266449;22;20054;-95
2023/12/07 11:56:05;;;;;;;33.35;18.63;;;4.00;99.90;;;;;;5034777;28;20045;-92
2023/12/07 11:58:33;;;;;;;29.33;17.05;;;3.40;99.90;;;;;;5043482;28;20026;-93
2023/12/07 12:00:59;;;;;;;31.38;17.17;;;3.40;99.90;;;;;;5037579;28;20022;-91
2023/12/07 12:03:29;;;;;;;33.22;17.40;;;3.40;99.90;;;;;;5026935;28;20046;-91
2023/12/07 12:05:55;;;;;;;29.27;17.17;;;3.40;99.90;;;;;;5028128;28;20043;-92
2023/12/07 12:08:21;;;;;;;33.92;17.67;;;4.30;99.90;;;;;;5028565;28;20055;-92
2023/12/07 12:10:50;;;;;;;33.00;16.90;;;3.40;99.90;;;;;;5036883;28;20046;-94
2023/12/07 12:13:17;;;;;;;28.95;16.52;;;4.10;99.90;;;;;;5325094;23;20116;-87
2023/12/07 12:15:43;;;;;;;24.08;14.90;;;3.50;99.90;;;;;;5068666;28;20503;-90
2023/12/07 12:18:09;;;;;;;28.92;15.95;;;3.50;99.90;;;;;;5077223;28;20087;-89
2023/12/07 12:20:35;;;;;;;27.02;15.07;;;3.60;99.90;;;;;;5083722;28;20041;-92
2023/12/07 12:23:01;;;;;;;24.10;15.35;;;3.60;99.90;;;;;;5080350;28;20036;-93
2023/12/07 12:25:30;;;;;;;26.58;16.08;;;3.60;99.90;;;;;;5074907;28;20029;-94
2023/12/07 12:28:03;;;;;;;29.65;15.65;;;3.60;99.90;;;;;;5083104;28;20017;-93
2023/12/07 12:30:29;;;;;;;30.83;14.98;;;3.70;99.90;;;;;;5077063;28;20044;-92
2023/12/07 12:32:57;;;;;;;26.00;15.27;;;3.70;99.90;;;;;;5064641;28;20074;-89
2023/12/07 12:35:23;;;;;;;29.70;15.18;;;3.70;99.90;;;;;;5065113;28;20034;-93
2023/12/07 12:37:50;;;;;;;23.15;14.82;;;3.70;99.90;;;;;;5068607;28;20097;-86
2023/12/07 12:40:18;;;;;;;25.42;15.77;;;3.70;99.90;;;;;;5074584;28;20037;-93
2023/12/07 12:42:50;;;;;;;28.08;15.65;;;3.70;99.90;;;;;;5046124;28;20437;-93
2023/12/07 12:45:18;;;;;;;26.98;14.50;;;3.80;99.90;;;;;;5070749;28;20040;-91
2023/12/07 12:47:44;;;;;;;25.75;15.23;;;3.80;99.90;;;;;;5068592;28;20079;-88
2023/12/07 12:50:31;;;;;;;31.02;15.82;;;3.80;99.90;;;;;;5063644;28;20121;-88